createdAt,value
2023-10-31T00:01:59.335Z,14.70
2023-10-31T00:04:26.200Z,14.70
2023-10-31T00:06:52.990Z,14.70
2023-10-31T00:09:19.812Z,14.80
2023-10-31T00:11:46.598Z,14.80
2023-10-31T00:14:29.434Z,14.80
2023-10-31T00:17:01.741Z,14.80
2023-10-31T00:19:28.839Z,14.80
2023-10-31T00:21:55.751Z,14.90
2023-10-31T00:24:22.697Z,14.90
2023-10-31T00:26:49.492Z,14.80
2023-10-31T00:29:16.354Z,14.80
2023-10-31T00:31:43.407Z,14.80
2023-10-31T00:34:11.230Z,14.90
2023-10-31T00:36:38.170Z,14.90
2023-10-31T00:39:05.016Z,14.90
2023-10-31T00:41:31.978Z,14.90
2023-10-31T00:43:58.945Z,14.90
2023-10-31T00:46:25.967Z,14.90
2023-10-31T00:48:52.844Z,14.90
2023-10-31T00:51:19.667Z,14.90
2023-10-31T00:53:46.931Z,14.90
2023-10-31T00:56:13.837Z,14.90
2023-10-31T00:58:40.868Z,14.90
2023-10-31T01:01:07.818Z,14.80
2023-10-31T01:03:34.970Z,14.80
2023-10-31T01:06:01.910Z,14.80
2023-10-31T01:08:28.840Z,14.80
2023-10-31T01:10:55.763Z,14.80
2023-10-31T01:13:23.068Z,14.90
2023-10-31T01:15:49.886Z,14.80
2023-10-31T01:18:16.772Z,14.90
2023-10-31T01:20:43.749Z,14.90
2023-10-31T01:23:10.758Z,14.90
2023-10-31T01:25:37.665Z,14.90
2023-10-31T01:28:04.642Z,14.90
2023-10-31T01:30:31.470Z,14.90
2023-10-31T01:32:58.422Z,14.90
2023-10-31T01:35:25.344Z,14.90
2023-10-31T01:37:52.434Z,15.00
2023-10-31T01:40:19.290Z,15.10
2023-10-31T01:42:46.130Z,15.10
2023-10-31T01:45:14.111Z,15.10
2023-10-31T01:47:40.961Z,15.10
2023-10-31T01:50:08.451Z,15.00
2023-10-31T01:52:37.086Z,15.10
2023-10-31T01:55:05.486Z,15.10
2023-10-31T01:57:32.756Z,15.10
2023-10-31T02:00:00.460Z,15.10
2023-10-31T02:02:30.004Z,15.10
2023-10-31T02:04:57.822Z,15.10
2023-10-31T02:07:24.689Z,15.00
2023-10-31T02:09:51.740Z,15.10
2023-10-31T02:12:38.199Z,15.10
2023-10-31T02:15:06.445Z,15.10
2023-10-31T02:17:33.369Z,15.10
2023-10-31T02:20:00.430Z,15.20
2023-10-31T02:22:27.279Z,15.10
2023-10-31T02:24:54.200Z,15.10
2023-10-31T02:27:21.054Z,15.10
2023-10-31T02:29:48.126Z,15.10
2023-10-31T02:32:15.091Z,15.00
2023-10-31T02:34:42.115Z,15.00
2023-10-31T02:37:08.987Z,15.00
2023-10-31T02:39:36.486Z,15.00
2023-10-31T02:42:03.445Z,15.00
2023-10-31T02:44:30.421Z,15.00
2023-10-31T02:46:57.389Z,15.00
2023-10-31T02:49:24.450Z,15.00
2023-10-31T02:51:51.320Z,14.90
2023-10-31T02:54:18.211Z,14.90
2023-10-31T02:56:45.137Z,15.00
2023-10-31T02:59:12.127Z,15.00
2023-10-31T03:01:39.248Z,15.00
2023-10-31T03:04:06.586Z,14.90
2023-10-31T03:06:33.497Z,14.90
2023-10-31T03:09:00.425Z,14.90
2023-10-31T03:11:28.106Z,14.90
2023-10-31T03:13:57.885Z,14.90
2023-10-31T03:16:25.353Z,14.90
2023-10-31T03:18:52.341Z,14.90
2023-10-31T03:21:19.383Z,14.90
2023-10-31T03:23:50.904Z,14.90
2023-10-31T03:26:18.268Z,14.80
2023-10-31T03:28:45.701Z,14.80
2023-10-31T03:31:13.922Z,14.80
2023-10-31T03:33:41.451Z,14.90
2023-10-31T03:36:09.511Z,14.80
2023-10-31T03:38:37.340Z,14.80
2023-10-31T03:41:04.757Z,14.80
2023-10-31T03:43:31.914Z,14.80
2023-10-31T03:45:58.796Z,14.80
2023-10-31T03:48:25.955Z,14.90
2023-10-31T03:50:53.109Z,14.80
2023-10-31T03:53:20.204Z,14.90
2023-10-31T03:55:51.096Z,14.90
2023-10-31T03:58:17.893Z,14.90
2023-10-31T04:00:44.783Z,15.00
2023-10-31T04:03:11.661Z,15.00
2023-10-31T04:05:38.774Z,15.00
2023-10-31T04:08:05.752Z,15.00
2023-10-31T04:10:32.710Z,15.00
2023-10-31T04:12:59.620Z,15.00
2023-10-31T04:15:26.496Z,15.00
2023-10-31T04:17:53.328Z,15.00
2023-10-31T04:20:20.485Z,15.00
2023-10-31T04:22:47.377Z,14.90
2023-10-31T04:25:14.233Z,15.00
2023-10-31T04:27:41.256Z,14.90
2023-10-31T04:30:09.160Z,15.00
2023-10-31T04:32:36.786Z,15.00
2023-10-31T04:35:03.751Z,15.00
2023-10-31T04:37:33.025Z,15.00
2023-10-31T04:40:00.777Z,15.00
2023-10-31T04:42:27.545Z,15.00
2023-10-31T04:44:54.332Z,15.00
2023-10-31T04:47:21.243Z,15.10
2023-10-31T04:49:48.762Z,15.10
2023-10-31T04:52:16.072Z,15.10
2023-10-31T04:54:43.069Z,15.10
2023-10-31T04:57:10.010Z,15.20
2023-10-31T04:59:36.785Z,15.20
2023-10-31T05:02:03.822Z,15.20
2023-10-31T05:04:30.779Z,15.20
2023-10-31T05:06:57.657Z,15.10
2023-10-31T05:09:24.661Z,15.10
2023-10-31T05:11:52.055Z,15.10
2023-10-31T05:14:19.133Z,15.00
2023-10-31T05:16:46.053Z,15.00
2023-10-31T05:19:13.020Z,15.10
2023-10-31T05:21:39.993Z,15.10
2023-10-31T05:24:07.580Z,15.10
2023-10-31T05:26:34.378Z,15.00
2023-10-31T05:29:01.268Z,15.00
2023-10-31T05:31:28.292Z,14.90
2023-10-31T05:33:55.288Z,14.90
2023-10-31T05:36:23.945Z,14.90
2023-10-31T05:38:51.211Z,14.90
2023-10-31T05:41:18.215Z,14.90
2023-10-31T05:43:45.163Z,14.90
2023-10-31T05:46:12.254Z,14.90
2023-10-31T05:48:40.256Z,14.90
2023-10-31T05:51:20.243Z,14.80
2023-10-31T05:53:49.435Z,14.80
2023-10-31T05:56:17.353Z,14.80
2023-10-31T05:58:44.488Z,14.80
2023-10-31T06:01:11.649Z,14.80
2023-10-31T06:03:39.039Z,14.80
2023-10-31T06:06:06.842Z,14.80
2023-10-31T06:08:33.710Z,14.70
2023-10-31T06:11:01.461Z,14.70
2023-10-31T06:13:28.650Z,14.70
2023-10-31T06:15:59.448Z,14.70
2023-10-31T06:18:29.409Z,14.60
2023-10-31T06:20:56.646Z,14.60
2023-10-31T06:23:23.768Z,14.60
2023-10-31T06:25:50.927Z,14.60
2023-10-31T06:28:17.783Z,14.60
2023-10-31T06:30:44.777Z,14.60
2023-10-31T06:33:12.055Z,14.60
2023-10-31T06:35:39.159Z,14.60
2023-10-31T06:38:06.104Z,14.60
2023-10-31T06:40:33.154Z,14.60
2023-10-31T06:43:00.417Z,14.60
2023-10-31T06:45:27.515Z,14.70
2023-10-31T06:47:54.842Z,14.60
2023-10-31T06:50:21.846Z,14.70
2023-10-31T06:52:48.785Z,14.70
2023-10-31T06:55:16.242Z,14.60
2023-10-31T06:57:43.992Z,14.60
2023-10-31T07:00:12.698Z,14.60
2023-10-31T07:02:39.916Z,14.60
2023-10-31T07:05:07.292Z,14.60
2023-10-31T07:07:34.263Z,14.60
2023-10-31T07:10:01.193Z,14.60
2023-10-31T07:12:28.187Z,14.60
2023-10-31T07:14:55.307Z,14.60
2023-10-31T07:17:22.324Z,14.60
2023-10-31T07:19:49.280Z,14.70
2023-10-31T07:22:16.423Z,14.70
2023-10-31T07:24:43.974Z,14.70
2023-10-31T07:27:11.133Z,14.70
2023-10-31T07:29:41.696Z,14.80
2023-10-31T07:32:11.169Z,14.90
2023-10-31T07:34:41.555Z,14.90
2023-10-31T07:37:08.377Z,14.90
2023-10-31T07:39:35.232Z,14.90
2023-10-31T07:42:02.473Z,15.00
2023-10-31T07:44:29.702Z,15.00
2023-10-31T07:46:56.577Z,15.00
2023-10-31T07:49:23.427Z,15.10
2023-10-31T07:51:50.610Z,15.10
2023-10-31T07:54:17.540Z,15.10
2023-10-31T07:56:44.495Z,15.10
2023-10-31T07:59:12.224Z,15.10
2023-10-31T08:01:39.416Z,15.10
2023-10-31T08:04:06.683Z,15.20
2023-10-31T08:06:33.610Z,15.20
2023-10-31T08:09:00.992Z,15.20
2023-10-31T08:11:27.908Z,15.20
2023-10-31T08:13:54.947Z,15.20
2023-10-31T08:16:21.966Z,15.20
2023-10-31T08:18:50.001Z,15.30
2023-10-31T08:21:17.064Z,15.30
2023-10-31T08:23:45.818Z,15.40
2023-10-31T08:26:13.928Z,15.50
2023-10-31T08:28:42.011Z,15.60
2023-10-31T08:31:09.294Z,15.70
2023-10-31T08:33:36.376Z,15.70
2023-10-31T08:36:03.512Z,15.80
2023-10-31T08:38:32.324Z,15.80
2023-10-31T08:41:00.604Z,15.80
2023-10-31T08:43:27.975Z,15.80
2023-10-31T08:45:55.103Z,15.80
2023-10-31T08:48:22.183Z,15.80
2023-10-31T08:50:49.518Z,15.80
2023-10-31T08:53:16.599Z,15.70
2023-10-31T08:55:45.508Z,15.70
2023-10-31T08:58:14.168Z,15.80
2023-10-31T09:00:44.943Z,15.80
2023-10-31T09:03:11.953Z,15.80
2023-10-31T09:05:38.909Z,15.90
2023-10-31T09:08:06.625Z,15.90
2023-10-31T09:10:36.865Z,16.00
2023-10-31T09:13:03.809Z,16.00
2023-10-31T09:15:30.683Z,16.00
2023-10-31T09:17:57.828Z,16.00
2023-10-31T09:20:24.939Z,16.00
2023-10-31T09:22:51.837Z,16.00
2023-10-31T09:25:18.788Z,16.10
2023-10-31T09:27:45.965Z,16.10
2023-10-31T09:30:13.094Z,16.10
2023-10-31T09:32:40.115Z,16.00
2023-10-31T09:35:09.290Z,16.10
2023-10-31T09:37:36.290Z,16.10
2023-10-31T09:40:03.453Z,16.10
2023-10-31T09:42:30.395Z,16.00
2023-10-31T09:44:57.352Z,16.10
2023-10-31T09:47:24.487Z,16.10
2023-10-31T09:49:51.744Z,16.10
2023-10-31T09:52:21.273Z,16.10
2023-10-31T09:54:51.121Z,16.20
2023-10-31T09:57:18.799Z,16.20
2023-10-31T09:59:46.319Z,16.20
2023-10-31T10:02:13.389Z,16.30
2023-10-31T10:04:40.833Z,16.40
2023-10-31T10:07:07.712Z,16.50
2023-10-31T10:09:34.561Z,16.60
2023-10-31T10:12:02.797Z,16.80
2023-10-31T10:14:32.433Z,16.80
2023-10-31T10:16:59.890Z,16.90
2023-10-31T10:19:27.046Z,17.00
2023-10-31T10:21:59.147Z,17.00
2023-10-31T10:24:26.590Z,17.00
2023-10-31T10:26:53.914Z,17.10
2023-10-31T10:29:21.356Z,17.20
2023-10-31T10:31:48.523Z,17.20
2023-10-31T10:34:17.305Z,17.30
2023-10-31T10:36:50.585Z,17.30
2023-10-31T10:39:22.134Z,17.30
2023-10-31T10:41:58.823Z,17.40
2023-10-31T10:44:36.299Z,17.50
2023-10-31T10:47:07.672Z,17.40
2023-10-31T10:49:40.055Z,17.30
2023-10-31T10:52:48.171Z,17.40
2023-10-31T10:55:25.440Z,17.30
2023-10-31T10:58:02.266Z,17.40
2023-10-31T11:00:30.195Z,17.40
2023-10-31T11:02:58.363Z,17.40
2023-10-31T11:05:26.075Z,17.40
2023-10-31T11:07:57.399Z,17.30
2023-10-31T11:10:24.775Z,17.20
2023-10-31T11:12:51.897Z,17.20
2023-10-31T11:15:19.719Z,17.30
2023-10-31T11:17:48.323Z,17.40
2023-10-31T11:20:17.157Z,17.50
2023-10-31T11:22:46.283Z,17.50
2023-10-31T11:25:31.695Z,17.50
2023-10-31T11:28:16.887Z,17.50
2023-10-31T11:30:44.767Z,17.50
2023-10-31T11:33:16.496Z,17.60
2023-10-31T11:35:46.525Z,17.70
2023-10-31T11:38:13.908Z,17.80
2023-10-31T11:40:50.071Z,17.80
2023-10-31T11:43:17.761Z,17.80
2023-10-31T11:45:48.649Z,17.70
2023-10-31T11:48:17.093Z,17.60
2023-10-31T11:50:44.149Z,17.50
2023-10-31T11:53:16.239Z,17.40
2023-10-31T11:55:48.217Z,17.50
2023-10-31T11:58:21.875Z,17.60
2023-10-31T12:00:51.736Z,17.60
2023-10-31T12:03:20.920Z,17.60
2023-10-31T12:06:02.498Z,17.60
2023-10-31T12:08:38.378Z,17.50
2023-10-31T12:11:05.404Z,17.50
2023-10-31T12:13:32.372Z,17.50
2023-10-31T12:15:59.717Z,17.50
2023-10-31T12:18:26.639Z,17.50
2023-10-31T12:20:53.775Z,17.50
2023-10-31T12:23:20.695Z,17.40
2023-10-31T12:25:54.462Z,17.30
2023-10-31T12:28:23.202Z,17.30
2023-10-31T12:30:55.486Z,17.20
2023-10-31T12:33:26.068Z,17.20
2023-10-31T12:36:00.540Z,17.10
2023-10-31T12:38:28.290Z,17.10
2023-10-31T12:40:58.086Z,17.10
2023-10-31T12:43:26.522Z,17.20
2023-10-31T12:45:53.932Z,17.30
2023-10-31T12:48:25.532Z,17.40
2023-10-31T12:51:09.644Z,17.40
2023-10-31T12:53:36.638Z,17.50
2023-10-31T12:56:04.107Z,17.50
2023-10-31T12:58:31.233Z,17.60
2023-10-31T13:00:58.124Z,17.50
2023-10-31T13:03:25.086Z,17.50
2023-10-31T13:05:52.217Z,17.40
2023-10-31T13:08:19.177Z,17.40
2023-10-31T13:10:46.249Z,17.30
2023-10-31T13:13:13.543Z,17.30
2023-10-31T13:15:40.865Z,17.30
2023-10-31T13:18:08.265Z,17.30
2023-10-31T13:20:35.702Z,17.30
2023-10-31T13:23:04.352Z,17.30
2023-10-31T13:25:32.834Z,17.40
2023-10-31T13:27:59.983Z,17.40
2023-10-31T13:30:26.950Z,17.40
2023-10-31T13:32:55.244Z,17.40
2023-10-31T13:35:22.251Z,17.40
2023-10-31T13:37:49.215Z,17.40
2023-10-31T13:40:16.671Z,17.30
2023-10-31T13:42:43.581Z,17.40
2023-10-31T13:45:10.983Z,17.30
2023-10-31T13:47:39.482Z,17.20
2023-10-31T13:50:08.819Z,17.20
2023-10-31T13:52:35.884Z,17.20
2023-10-31T13:55:02.747Z,17.10
2023-10-31T13:57:29.636Z,17.00
2023-10-31T13:59:56.488Z,17.00
2023-10-31T14:02:23.426Z,17.00
2023-10-31T14:04:51.341Z,17.00
2023-10-31T14:07:24.027Z,17.00
2023-10-31T14:09:51.331Z,17.00
2023-10-31T14:12:18.502Z,17.00
2023-10-31T14:14:49.010Z,17.00
2023-10-31T14:17:19.602Z,17.00
2023-10-31T14:19:46.602Z,17.00
2023-10-31T14:22:15.182Z,17.00
2023-10-31T14:24:42.106Z,17.00
2023-10-31T14:27:08.980Z,17.00
2023-10-31T14:29:36.382Z,17.00
2023-10-31T14:32:08.004Z,17.00
2023-10-31T14:34:34.968Z,17.00
2023-10-31T14:37:01.839Z,17.00
2023-10-31T14:39:28.855Z,17.00
2023-10-31T14:41:56.226Z,16.90
2023-10-31T14:44:23.084Z,16.80
2023-10-31T14:46:50.071Z,16.70
2023-10-31T14:49:17.044Z,16.60
2023-10-31T14:51:43.910Z,16.60
2023-10-31T14:54:11.077Z,16.60
2023-10-31T14:56:38.813Z,16.60
2023-10-31T14:59:05.891Z,16.50
2023-10-31T15:01:33.680Z,16.50
2023-10-31T15:04:00.723Z,16.50
2023-10-31T15:06:27.706Z,16.50
2023-10-31T15:08:54.595Z,16.50
2023-10-31T15:11:21.636Z,16.50
2023-10-31T15:13:48.615Z,16.40
2023-10-31T15:16:15.595Z,16.40
2023-10-31T15:18:44.182Z,16.30
2023-10-31T15:21:12.047Z,16.20
2023-10-31T15:23:39.725Z,16.30
2023-10-31T15:26:09.837Z,16.20
2023-10-31T15:28:37.545Z,16.20
2023-10-31T15:31:04.700Z,16.20
2023-10-31T15:33:32.033Z,16.10
2023-10-31T15:35:59.404Z,16.10
2023-10-31T15:38:28.155Z,16.10
2023-10-31T15:41:03.951Z,16.10
2023-10-31T15:43:34.766Z,16.10
2023-10-31T15:46:01.765Z,16.10
2023-10-31T15:48:28.711Z,16.10
2023-10-31T15:50:55.648Z,16.10
2023-10-31T15:53:25.149Z,16.10
2023-10-31T15:55:52.351Z,16.10
2023-10-31T15:58:19.259Z,16.20
2023-10-31T16:00:46.457Z,16.20
2023-10-31T16:03:13.483Z,16.20
2023-10-31T16:05:41.445Z,16.20
2023-10-31T16:08:08.721Z,16.10
2023-10-31T16:10:36.112Z,16.10
2023-10-31T16:13:03.659Z,16.10
2023-10-31T16:15:30.723Z,16.00
2023-10-31T16:17:57.843Z,16.10
2023-10-31T16:20:24.791Z,16.00
2023-10-31T16:22:52.319Z,16.10
2023-10-31T16:25:19.518Z,16.10
2023-10-31T16:27:46.997Z,16.10
2023-10-31T16:30:14.300Z,16.10
2023-10-31T16:32:41.196Z,16.10
2023-10-31T16:35:08.405Z,16.10
2023-10-31T16:37:35.465Z,16.10
2023-10-31T16:40:02.430Z,16.10
2023-10-31T16:42:33.399Z,16.10
2023-10-31T16:45:01.598Z,16.10
2023-10-31T16:47:28.935Z,16.10
2023-10-31T16:49:55.938Z,16.10
2023-10-31T16:52:23.631Z,16.10
2023-10-31T16:54:50.946Z,16.00
2023-10-31T16:57:17.929Z,16.00
2023-10-31T16:59:44.866Z,16.00
2023-10-31T17:02:11.899Z,16.00
2023-10-31T17:04:38.822Z,16.00
2023-10-31T17:07:05.775Z,16.00
2023-10-31T17:09:32.708Z,16.00
2023-10-31T17:11:59.617Z,16.00
2023-10-31T17:14:26.724Z,16.00
2023-10-31T17:16:53.720Z,16.00
2023-10-31T17:19:20.679Z,16.00
2023-10-31T17:21:49.433Z,16.10
2023-10-31T17:24:17.002Z,16.10
2023-10-31T17:26:44.120Z,16.10
2023-10-31T17:29:10.995Z,16.10
2023-10-31T17:31:41.138Z,16.10
2023-10-31T17:34:08.129Z,16.10
2023-10-31T17:36:35.124Z,16.10
2023-10-31T17:39:02.108Z,16.20
2023-10-31T17:41:28.986Z,16.20
2023-10-31T17:43:55.856Z,16.20
2023-10-31T17:46:22.838Z,16.20
2023-10-31T17:48:49.695Z,16.20
2023-10-31T17:51:16.535Z,16.20
2023-10-31T17:53:44.921Z,16.20
2023-10-31T17:56:11.895Z,16.20
2023-10-31T17:58:38.862Z,16.20
2023-10-31T18:01:06.047Z,16.20
2023-10-31T18:03:34.180Z,16.20
2023-10-31T18:06:01.027Z,16.20
2023-10-31T18:08:29.907Z,16.20
2023-10-31T18:10:56.893Z,16.10
2023-10-31T18:13:24.089Z,16.20
2023-10-31T18:15:51.519Z,16.20
2023-10-31T18:18:18.506Z,16.20
2023-10-31T18:20:45.467Z,16.20
2023-10-31T18:23:13.009Z,16.20
2023-10-31T18:25:39.919Z,16.20
2023-10-31T18:28:06.825Z,16.20
2023-10-31T18:30:33.849Z,16.20
2023-10-31T18:33:04.138Z,16.20
2023-10-31T18:35:31.629Z,16.20
2023-10-31T18:37:58.594Z,16.20
2023-10-31T18:40:26.217Z,16.20
2023-10-31T18:42:53.045Z,16.20
2023-10-31T18:45:19.949Z,16.10
2023-10-31T18:47:46.978Z,16.10
2023-10-31T18:50:14.456Z,16.10
2023-10-31T18:52:42.024Z,16.10
2023-10-31T18:55:09.539Z,16.00
2023-10-31T18:57:36.509Z,16.00
2023-10-31T19:00:04.690Z,16.00
2023-10-31T19:02:31.838Z,16.00
2023-10-31T19:04:58.884Z,16.00
2023-10-31T19:07:25.707Z,16.00
2023-10-31T19:09:53.730Z,15.90
2023-10-31T19:12:21.497Z,16.00
2023-10-31T19:14:48.361Z,16.00
2023-10-31T19:17:15.288Z,16.00
2023-10-31T19:19:43.664Z,16.00
2023-10-31T19:22:10.646Z,15.90
2023-10-31T19:24:37.533Z,16.00
2023-10-31T19:27:04.668Z,15.90
2023-10-31T19:29:31.576Z,15.90
2023-10-31T19:31:58.538Z,15.90
2023-10-31T19:34:25.513Z,16.00
2023-10-31T19:36:52.394Z,15.90
2023-10-31T19:39:20.332Z,15.90
2023-10-31T19:41:47.268Z,15.90
2023-10-31T19:44:14.170Z,15.80
2023-10-31T19:46:42.311Z,15.80
2023-10-31T19:49:09.290Z,15.80
2023-10-31T19:51:36.200Z,15.80
2023-10-31T19:54:03.061Z,15.80
2023-10-31T19:56:30.015Z,15.80
2023-10-31T19:58:58.538Z,15.80
2023-10-31T20:01:26.765Z,15.80
2023-10-31T20:03:53.879Z,15.80
2023-10-31T20:06:21.606Z,15.80
2023-10-31T20:08:48.751Z,15.80
2023-10-31T20:11:15.713Z,15.80
2023-10-31T20:13:43.268Z,15.80
2023-10-31T20:16:10.415Z,15.80
2023-10-31T20:18:37.590Z,15.80
2023-10-31T20:21:05.037Z,15.90
2023-10-31T20:23:32.875Z,15.90
2023-10-31T20:25:59.742Z,15.90
2023-10-31T20:28:27.598Z,15.90
2023-10-31T20:30:55.158Z,15.80
2023-10-31T20:33:22.112Z,15.70
2023-10-31T20:35:49.175Z,15.70
2023-10-31T20:38:16.079Z,15.70
2023-10-31T20:40:42.945Z,15.70
2023-10-31T20:43:10.673Z,15.70
2023-10-31T20:45:39.733Z,15.60
2023-10-31T20:48:07.366Z,15.60
2023-10-31T20:50:35.403Z,15.70
2023-10-31T20:53:03.975Z,15.60
2023-10-31T20:55:31.074Z,15.60
2023-10-31T20:57:58.029Z,15.60
2023-10-31T21:00:26.307Z,15.60
2023-10-31T21:02:55.017Z,15.70
2023-10-31T21:05:22.269Z,15.70
2023-10-31T21:07:49.212Z,15.70
2023-10-31T21:10:16.128Z,15.80
2023-10-31T21:12:43.182Z,15.90
2023-10-31T21:15:10.516Z,15.90
2023-10-31T21:17:37.775Z,15.90
2023-10-31T21:20:05.489Z,16.00
2023-10-31T21:22:35.127Z,16.00
2023-10-31T21:25:04.309Z,16.00
2023-10-31T21:27:31.145Z,16.10
2023-10-31T21:29:58.790Z,16.00
2023-10-31T21:32:25.991Z,16.00
2023-10-31T21:34:52.945Z,15.80
2023-10-31T21:37:20.418Z,15.90
2023-10-31T21:39:48.537Z,16.00
2023-10-31T21:42:15.785Z,16.10
2023-10-31T21:44:42.780Z,16.10
2023-10-31T21:47:09.718Z,16.10
2023-10-31T21:49:36.721Z,16.10
2023-10-31T21:52:03.928Z,16.10
2023-10-31T21:54:32.368Z,16.20
2023-10-31T21:56:59.267Z,16.10
2023-10-31T21:59:26.189Z,16.10
2023-10-31T22:01:53.254Z,15.90
2023-10-31T22:04:21.057Z,15.90
2023-10-31T22:06:47.914Z,15.80
2023-10-31T22:09:16.442Z,15.80
2023-10-31T22:11:44.153Z,15.80
2023-10-31T22:14:11.208Z,15.80
2023-10-31T22:16:38.118Z,15.80
2023-10-31T22:19:05.621Z,15.80
2023-10-31T22:21:32.758Z,15.80
2023-10-31T22:23:59.552Z,15.80
2023-10-31T22:26:26.784Z,15.80
2023-10-31T22:28:53.633Z,15.80
2023-10-31T22:31:20.732Z,15.80
2023-10-31T22:33:47.584Z,15.90
2023-10-31T22:36:14.393Z,15.90
2023-10-31T22:38:42.697Z,16.00
2023-10-31T22:41:10.581Z,16.10
2023-10-31T22:43:37.604Z,16.10
2023-10-31T22:46:09.761Z,16.10
2023-10-31T22:48:38.611Z,16.20
2023-10-31T22:51:06.334Z,16.20
2023-10-31T22:53:34.009Z,16.30
2023-10-31T22:56:00.951Z,16.30
2023-10-31T22:58:29.190Z,16.30
2023-10-31T23:00:56.484Z,16.20
2023-10-31T23:03:24.251Z,16.10
2023-10-31T23:05:51.051Z,16.10
2023-10-31T23:08:18.092Z,16.10
2023-10-31T23:10:45.090Z,16.20
2023-10-31T23:13:12.159Z,16.20
2023-10-31T23:15:39.733Z,16.20
2023-10-31T23:18:07.590Z,16.20
2023-10-31T23:20:36.084Z,16.20
2023-10-31T23:23:03.852Z,16.20
2023-10-31T23:25:30.854Z,16.20
2023-10-31T23:27:57.773Z,16.20
2023-10-31T23:30:24.679Z,16.20
2023-10-31T23:32:51.705Z,16.20
2023-10-31T23:35:18.687Z,16.20
2023-10-31T23:37:45.487Z,16.20
2023-10-31T23:40:12.583Z,16.20
2023-10-31T23:42:39.386Z,16.20
2023-10-31T23:45:06.546Z,16.20
2023-10-31T23:47:33.533Z,16.20
2023-10-31T23:50:00.491Z,16.20
2023-10-31T23:52:27.853Z,16.10
2023-10-31T23:54:54.775Z,16.10
2023-10-31T23:57:21.596Z,16.10
2023-10-31T23:59:48.439Z,16.00
